createdAt,value
2018-12-17T00:02:19.170Z,32.95
2018-12-17T00:04:46.650Z,17.32
2018-12-17T00:07:14.079Z,42.20
2018-12-17T00:09:41.485Z,21.75
2018-12-17T00:12:08.974Z,28.25
2018-12-17T00:14:36.493Z,41.13
2018-12-17T00:17:05.202Z,49.23
2018-12-17T00:19:32.852Z,38.15
2018-12-17T00:22:00.363Z,27.82
2018-12-17T00:24:27.901Z,26.15
2018-12-17T00:26:55.406Z,35.13
2018-12-17T00:29:22.947Z,31.23
2018-12-17T00:31:50.462Z,31.45
2018-12-17T00:34:17.881Z,27.22
2018-12-17T00:36:45.313Z,31.07
2018-12-17T00:39:12.785Z,47.25
2018-12-17T00:41:40.297Z,21.07
2018-12-17T00:44:07.718Z,37.67
2018-12-17T00:46:35.205Z,45.35
2018-12-17T00:49:02.623Z,42.85
2018-12-17T00:51:30.054Z,33.50
2018-12-17T00:53:57.551Z,25.12
2018-12-17T00:56:25.046Z,21.75
2018-12-17T00:58:52.482Z,25.62
2018-12-17T01:01:19.906Z,49.67
2018-12-17T01:03:47.433Z,38.78
2018-12-17T01:06:14.858Z,29.90
2018-12-17T01:08:42.366Z,21.25
2018-12-17T01:11:09.789Z,34.43
2018-12-17T01:13:37.312Z,25.62
2018-12-17T01:16:05.809Z,39.65
2018-12-17T01:18:33.278Z,36.48
2018-12-17T01:21:00.809Z,24.98
2018-12-17T01:23:28.294Z,26.75
2018-12-17T01:25:55.809Z,39.15
2018-12-17T01:28:23.246Z,40.88
2018-12-17T01:30:50.735Z,21.00
2018-12-17T01:33:18.308Z,21.75
2018-12-17T01:35:45.874Z,23.22
2018-12-17T01:38:13.281Z,24.77
2018-12-17T01:40:40.715Z,38.75
2018-12-17T01:43:08.142Z,29.60
2018-12-17T01:45:35.549Z,26.02
2018-12-17T01:48:02.982Z,32.73
2018-12-17T01:50:30.476Z,31.33
2018-12-17T01:52:58.038Z,50.63
2018-12-17T01:55:25.639Z,28.75
2018-12-17T01:57:53.110Z,24.47
2018-12-17T02:00:20.786Z,32.73
2018-12-17T02:02:48.265Z,37.42
2018-12-17T02:05:15.722Z,18.42
2018-12-17T02:07:43.210Z,35.30
2018-12-17T02:10:10.769Z,33.80
2018-12-17T02:12:38.242Z,19.60
2018-12-17T02:15:05.745Z,19.45
2018-12-17T02:17:33.182Z,21.12
2018-12-17T02:20:00.851Z,39.67
2018-12-17T02:22:28.428Z,25.65
2018-12-17T02:24:55.906Z,36.00
2018-12-17T02:27:23.470Z,46.45
2018-12-17T02:29:50.938Z,42.13
2018-12-17T02:32:18.352Z,35.80
2018-12-17T02:34:45.853Z,19.32
2018-12-17T02:37:13.334Z,23.02
2018-12-17T02:39:40.841Z,26.68
2018-12-17T02:42:08.263Z,28.45
2018-12-17T02:44:35.749Z,26.12
2018-12-17T02:47:03.177Z,36.95
2018-12-17T02:49:30.875Z,33.25
2018-12-17T02:51:58.369Z,33.95
2018-12-17T02:54:25.793Z,52.08
2018-12-17T02:56:53.318Z,41.90
2018-12-17T02:59:20.919Z,28.67
2018-12-17T03:01:48.462Z,25.97
2018-12-17T03:04:16.034Z,32.85
2018-12-17T03:06:43.453Z,27.65
2018-12-17T03:09:10.893Z,27.42
2018-12-17T03:11:38.344Z,39.27
2018-12-17T03:14:05.825Z,35.05
2018-12-17T03:16:33.386Z,40.65
2018-12-17T03:19:00.853Z,30.27
2018-12-17T03:21:28.348Z,27.65
2018-12-17T03:23:55.851Z,37.38
2018-12-17T03:26:23.329Z,25.35
2018-12-17T03:28:51.971Z,31.00
2018-12-17T03:31:19.711Z,23.45
2018-12-17T03:33:47.193Z,32.33
2018-12-17T03:36:14.688Z,26.65
2018-12-17T03:38:42.174Z,37.80
2018-12-17T03:41:09.673Z,35.08
2018-12-17T03:43:37.089Z,43.70
2018-12-17T03:46:04.670Z,32.03
2018-12-17T03:48:32.144Z,25.80
2018-12-17T03:50:59.719Z,50.48
2018-12-17T03:53:27.206Z,26.15
2018-12-17T03:55:54.626Z,20.55
2018-12-17T03:58:22.121Z,27.20
2018-12-17T04:00:49.549Z,27.32
2018-12-17T04:03:16.967Z,30.12
2018-12-17T04:05:44.534Z,31.70
2018-12-17T04:08:12.105Z,26.37
2018-12-17T04:10:40.056Z,22.13
2018-12-17T04:13:07.618Z,33.90
2018-12-17T04:15:35.333Z,32.28
2018-12-17T04:18:02.809Z,23.55
2018-12-17T04:20:30.273Z,19.82
2018-12-17T04:22:57.750Z,21.95
2018-12-17T04:25:25.241Z,16.60
2018-12-17T04:27:52.682Z,23.25
2018-12-17T04:30:20.258Z,31.85
2018-12-17T04:32:47.763Z,31.30
2018-12-17T04:35:15.165Z,27.17
2018-12-17T04:37:42.576Z,21.77
2018-12-17T04:40:10.051Z,18.98
2018-12-17T04:42:37.472Z,30.32
2018-12-17T04:45:05.386Z,25.52
2018-12-17T04:47:32.813Z,29.52
2018-12-17T04:50:00.328Z,23.38
2018-12-17T04:52:27.825Z,22.80
2018-12-17T04:54:55.272Z,20.17
2018-12-17T04:57:22.848Z,36.28
2018-12-17T04:59:50.418Z,101.12
2018-12-17T05:02:17.906Z,31.37
2018-12-17T05:04:45.386Z,39.90
2018-12-17T05:07:12.797Z,38.48
2018-12-17T05:09:40.281Z,42.45
2018-12-17T05:12:07.716Z,38.10
2018-12-17T05:14:35.138Z,43.85
2018-12-17T05:17:02.610Z,43.45
2018-12-17T05:19:30.098Z,72.72
2018-12-17T05:21:57.646Z,29.10
2018-12-17T05:24:25.175Z,44.38
2018-12-17T05:26:52.694Z,34.85
2018-12-17T05:29:21.693Z,42.75
2018-12-17T05:31:49.419Z,32.35
2018-12-17T05:34:16.943Z,43.90
2018-12-17T05:36:44.415Z,51.37
2018-12-17T05:39:11.906Z,39.88
2018-12-17T05:41:39.579Z,26.07
2018-12-17T05:44:07.070Z,51.40
2018-12-17T05:46:34.609Z,34.75
2018-12-17T05:49:03.494Z,45.88
2018-12-17T05:51:31.190Z,33.23
2018-12-17T05:53:58.661Z,60.55
2018-12-17T05:56:26.077Z,42.45
2018-12-17T05:58:53.487Z,41.10
2018-12-17T06:01:21.066Z,33.20
2018-12-17T06:03:48.566Z,41.88
2018-12-17T06:06:16.042Z,42.30
2018-12-17T06:08:43.467Z,55.08
2018-12-17T06:11:11.047Z,61.33
2018-12-17T06:13:38.518Z,38.92
2018-12-17T06:16:05.995Z,37.10
2018-12-17T06:18:33.482Z,30.55
2018-12-17T06:21:00.894Z,51.77
2018-12-17T06:23:28.363Z,37.48
2018-12-17T06:25:55.762Z,56.53
2018-12-17T06:28:23.236Z,45.03
2018-12-17T06:30:50.810Z,41.68
2018-12-17T06:33:18.278Z,58.65
2018-12-17T06:35:45.752Z,36.00
2018-12-17T06:38:13.226Z,46.80
2018-12-17T06:40:40.799Z,43.02
2018-12-17T06:43:08.366Z,39.23
2018-12-17T06:45:35.847Z,55.15
2018-12-17T06:48:03.650Z,46.42
2018-12-17T06:50:31.069Z,61.33
2018-12-17T06:52:58.486Z,32.75
2018-12-17T06:55:25.927Z,52.70
2018-12-17T06:57:53.635Z,60.15
2018-12-17T07:00:21.138Z,61.25
2018-12-17T07:02:48.622Z,44.05
2018-12-17T07:05:16.031Z,60.45
2018-12-17T07:07:43.517Z,117.62
2018-12-17T07:10:10.945Z,78.40
2018-12-17T07:12:38.460Z,63.80
2018-12-17T07:15:06.321Z,34.05
2018-12-17T07:17:33.753Z,42.17
2018-12-17T07:20:01.316Z,86.35
2018-12-17T07:22:28.838Z,31.65
2018-12-17T07:24:56.310Z,52.70
2018-12-17T07:27:23.724Z,44.85
2018-12-17T07:29:51.229Z,49.35
2018-12-17T07:32:18.794Z,65.08
2018-12-17T07:34:46.399Z,46.30
2018-12-17T07:37:14.006Z,46.53
2018-12-17T07:39:41.698Z,46.95
2018-12-17T07:42:09.194Z,47.95
2018-12-17T07:44:36.665Z,28.75
2018-12-17T07:47:04.101Z,48.00
2018-12-17T07:49:31.501Z,35.90
2018-12-17T07:51:58.989Z,43.40
2018-12-17T07:54:26.464Z,32.53
2018-12-17T07:56:53.966Z,25.23
2018-12-17T07:59:21.482Z,33.67
2018-12-17T08:01:48.911Z,42.35
2018-12-17T08:04:16.309Z,22.15
2018-12-17T08:06:43.890Z,40.90
2018-12-17T08:09:11.466Z,61.18
2018-12-17T08:11:39.041Z,22.55
2018-12-17T08:14:06.539Z,18.90
2018-12-17T08:16:34.026Z,39.05
2018-12-17T08:19:01.551Z,25.45
2018-12-17T08:21:29.056Z,23.60
2018-12-17T08:23:56.594Z,16.57
2018-12-17T08:26:24.062Z,9.80
2018-12-17T08:28:51.635Z,11.12
2018-12-17T08:31:19.138Z,17.32
2018-12-17T08:33:46.579Z,15.53
2018-12-17T08:36:14.057Z,30.32
2018-12-17T08:38:41.542Z,11.48
2018-12-17T08:41:08.943Z,15.72
2018-12-17T08:43:36.434Z,12.37
2018-12-17T08:46:03.858Z,12.03
2018-12-17T08:48:31.277Z,25.08
2018-12-17T08:50:58.767Z,23.45
2018-12-17T08:53:26.343Z,14.85
2018-12-17T08:55:53.738Z,14.40
2018-12-17T08:58:21.165Z,9.00
2018-12-17T09:00:48.605Z,13.85
2018-12-17T09:03:16.037Z,11.50
2018-12-17T09:05:43.510Z,17.55
2018-12-17T09:08:10.933Z,12.53
2018-12-17T09:10:38.434Z,15.72
2018-12-17T09:13:05.898Z,15.88
2018-12-17T09:15:33.365Z,21.12
2018-12-17T09:18:00.782Z,10.93
2018-12-17T09:20:28.201Z,15.65
2018-12-17T09:22:55.779Z,6.95
2018-12-17T09:25:23.197Z,12.37
2018-12-17T09:27:50.622Z,10.50
2018-12-17T09:30:18.721Z,15.65
2018-12-17T09:32:46.274Z,21.55
2018-12-17T09:35:14.090Z,12.37
2018-12-17T09:37:41.553Z,10.30
2018-12-17T09:40:09.100Z,5.92
2018-12-17T09:42:36.570Z,8.40
2018-12-17T09:45:05.181Z,14.33
2018-12-17T09:47:32.661Z,9.60
2018-12-17T09:50:00.105Z,12.13
2018-12-17T09:52:27.584Z,9.45
2018-12-17T09:54:55.074Z,14.03
2018-12-17T09:57:22.542Z,16.48
2018-12-17T09:59:49.954Z,27.67
2018-12-17T10:02:17.434Z,15.50
2018-12-17T10:04:45.030Z,9.78
2018-12-17T10:07:12.604Z,16.32
2018-12-17T10:09:40.077Z,24.02
2018-12-17T10:12:07.542Z,9.58
2018-12-17T10:14:35.014Z,14.15
2018-12-17T10:17:02.414Z,19.37
2018-12-17T10:19:30.054Z,14.65
2018-12-17T10:21:57.445Z,15.18
2018-12-17T10:24:24.862Z,17.42
2018-12-17T10:26:52.285Z,15.25
2018-12-17T10:29:19.709Z,14.65
2018-12-17T10:31:47.138Z,13.20
2018-12-17T10:34:14.674Z,9.45
2018-12-17T10:36:42.086Z,12.15
2018-12-17T10:39:09.610Z,17.90
2018-12-17T10:41:37.098Z,10.03
2018-12-17T10:44:04.773Z,10.08
2018-12-17T10:46:32.436Z,7.55
2018-12-17T10:48:59.905Z,11.85
2018-12-17T10:51:27.389Z,7.15
2018-12-17T10:53:54.844Z,7.00
2018-12-17T10:56:22.342Z,9.80
2018-12-17T10:58:49.833Z,7.47
2018-12-17T11:01:22.975Z,11.60
2018-12-17T11:03:52.207Z,12.28
2018-12-17T11:06:21.598Z,6.87
2018-12-17T11:08:50.082Z,7.05
2018-12-17T11:11:17.497Z,9.30
2018-12-17T11:13:44.979Z,21.00
2018-12-17T11:16:12.419Z,4.55
2018-12-17T11:18:39.994Z,6.08
2018-12-17T11:21:07.382Z,10.28
2018-12-17T11:23:34.930Z,11.50
2018-12-17T11:26:02.511Z,11.22
2018-12-17T11:28:29.990Z,8.55
2018-12-17T11:30:57.550Z,6.67
2018-12-17T11:33:25.061Z,8.55
2018-12-17T11:35:52.601Z,8.03
2018-12-17T11:38:20.973Z,11.88
2018-12-17T11:40:48.390Z,11.05
2018-12-17T11:43:15.821Z,8.05
2018-12-17T11:45:43.238Z,6.22
2018-12-17T11:48:10.714Z,35.85
2018-12-17T11:50:38.234Z,8.10
2018-12-17T11:53:05.657Z,13.05
2018-12-17T11:55:33.142Z,6.03
2018-12-17T11:58:08.354Z,8.25
2018-12-17T12:00:35.923Z,8.78
2018-12-17T12:03:03.409Z,9.20
2018-12-17T12:05:30.945Z,9.35
2018-12-17T12:07:58.433Z,7.37
2018-12-17T12:10:25.983Z,9.33
2018-12-17T12:12:53.473Z,9.48
2018-12-17T12:15:21.017Z,11.00
2018-12-17T12:17:48.599Z,10.10
2018-12-17T12:20:15.978Z,13.80
2018-12-17T12:22:43.410Z,9.65
2018-12-17T12:25:11.006Z,8.18
2018-12-17T12:27:38.850Z,7.87
2018-12-17T12:30:08.733Z,10.65
2018-12-17T12:32:36.177Z,14.55
2018-12-17T12:35:04.518Z,12.70
2018-12-17T12:37:31.944Z,8.00
2018-12-17T12:39:59.505Z,9.93
2018-12-17T12:42:26.913Z,10.63
2018-12-17T12:44:54.334Z,7.97
2018-12-17T12:47:21.818Z,16.15
2018-12-17T12:49:49.214Z,26.00
2018-12-17T12:52:16.650Z,19.92
2018-12-17T12:54:44.236Z,14.10
2018-12-17T12:57:11.610Z,12.10
2018-12-17T12:59:39.174Z,9.63
2018-12-17T13:02:06.852Z,13.48
2018-12-17T13:04:34.359Z,10.85
2018-12-17T13:07:01.834Z,21.68
2018-12-17T13:09:29.358Z,10.53
2018-12-17T13:11:56.774Z,23.55
2018-12-17T13:14:24.205Z,18.20
2018-12-17T13:16:51.775Z,13.98
2018-12-17T13:19:19.242Z,8.15
2018-12-17T13:21:46.718Z,13.03
2018-12-17T13:24:14.117Z,9.73
2018-12-17T13:26:41.550Z,16.52
2018-12-17T13:29:09.050Z,13.32
2018-12-17T13:31:36.537Z,8.93
2018-12-17T13:34:04.041Z,14.33
2018-12-17T13:36:31.449Z,9.83
2018-12-17T13:38:59.005Z,27.05
2018-12-17T13:41:26.475Z,31.82
2018-12-17T13:43:53.949Z,8.35
2018-12-17T13:46:21.417Z,14.93
2018-12-17T13:48:48.922Z,12.55
2018-12-17T13:51:22.129Z,14.50
2018-12-17T13:53:49.955Z,13.03
2018-12-17T13:56:17.357Z,11.35
2018-12-17T13:58:44.790Z,11.30
2018-12-17T14:01:12.279Z,10.40
2018-12-17T14:03:39.753Z,12.95
2018-12-17T14:06:07.223Z,13.22
2018-12-17T14:08:34.728Z,19.82
2018-12-17T14:11:02.226Z,12.00
2018-12-17T14:13:29.729Z,14.50
2018-12-17T14:15:59.110Z,13.25
2018-12-17T14:18:32.350Z,15.88
2018-12-17T14:21:05.334Z,9.53
2018-12-17T14:23:32.933Z,9.95
2018-12-17T14:26:00.410Z,9.45
2018-12-17T14:28:27.925Z,10.25
2018-12-17T14:30:55.442Z,9.83
2018-12-17T14:33:22.911Z,8.18
2018-12-17T14:35:55.994Z,8.78
2018-12-17T14:38:23.487Z,10.35
2018-12-17T14:40:50.954Z,5.42
2018-12-17T14:43:18.353Z,27.70
2018-12-17T14:45:45.833Z,7.17
2018-12-17T14:48:13.264Z,12.07
2018-12-17T14:50:40.750Z,9.00
2018-12-17T14:53:08.165Z,14.03
2018-12-17T14:55:35.670Z,10.40
2018-12-17T14:58:03.142Z,10.72
2018-12-17T15:00:30.558Z,23.90
2018-12-17T15:02:57.969Z,13.38
2018-12-17T15:05:25.474Z,14.47
2018-12-17T15:07:53.024Z,10.78
2018-12-17T15:10:20.513Z,13.35
2018-12-17T15:12:47.971Z,11.75
2018-12-17T15:15:15.442Z,10.63
2018-12-17T15:17:42.902Z,12.28
2018-12-17T15:20:10.358Z,21.12
2018-12-17T15:22:37.861Z,19.10
2018-12-17T15:25:07.369Z,14.53
2018-12-17T15:27:34.857Z,15.53
2018-12-17T15:30:02.360Z,12.45
2018-12-17T15:32:29.881Z,31.25
2018-12-17T15:34:57.452Z,6.33
2018-12-17T15:37:24.927Z,17.32
2018-12-17T15:39:52.429Z,11.83
2018-12-17T15:42:19.846Z,12.55
2018-12-17T15:44:47.258Z,11.15
2018-12-17T15:47:14.692Z,21.25
2018-12-17T15:49:42.270Z,7.12
2018-12-17T15:52:09.952Z,9.13
2018-12-17T15:54:37.414Z,13.08
2018-12-17T15:57:04.995Z,9.38
2018-12-17T15:59:32.513Z,9.48
2018-12-17T16:01:59.945Z,10.28
2018-12-17T16:04:27.502Z,10.53
2018-12-17T16:06:54.921Z,10.88
2018-12-17T16:09:22.338Z,12.13
2018-12-17T16:11:49.811Z,11.85
2018-12-17T16:14:17.386Z,11.73
2018-12-17T16:16:44.971Z,11.70
2018-12-17T16:19:12.437Z,8.78
2018-12-17T16:21:39.946Z,14.83
2018-12-17T16:24:07.357Z,16.85
2018-12-17T16:26:34.846Z,14.25
2018-12-17T16:29:02.517Z,8.05
2018-12-17T16:31:30.083Z,7.05
2018-12-17T16:33:57.660Z,11.53
2018-12-17T16:36:25.059Z,13.40
2018-12-17T16:38:52.547Z,7.37
2018-12-17T16:41:20.028Z,7.62
2018-12-17T16:43:47.540Z,17.23
2018-12-17T16:46:15.038Z,18.77
2018-12-17T16:48:42.525Z,17.92
2018-12-17T16:51:09.929Z,13.55
2018-12-17T16:53:37.365Z,18.60
2018-12-17T16:56:04.792Z,14.75
2018-12-17T16:58:32.364Z,10.75
2018-12-17T17:00:59.838Z,9.40
2018-12-17T17:03:27.330Z,12.93
2018-12-17T17:05:54.813Z,38.00
2018-12-17T17:08:22.238Z,19.05
2018-12-17T17:10:49.733Z,17.77
2018-12-17T17:13:17.154Z,15.72
2018-12-17T17:15:44.578Z,21.40
2018-12-17T17:18:12.015Z,15.75
2018-12-17T17:20:39.598Z,12.47
2018-12-17T17:23:07.087Z,11.35
2018-12-17T17:25:34.557Z,17.55
2018-12-17T17:28:02.111Z,19.48
2018-12-17T17:30:29.594Z,19.20
2018-12-17T17:32:57.099Z,17.57
2018-12-17T17:35:24.569Z,12.58
2018-12-17T17:37:52.093Z,18.90
2018-12-17T17:40:19.525Z,29.35
2018-12-17T17:42:47.030Z,22.07
2018-12-17T17:45:15.192Z,14.10
2018-12-17T17:47:42.794Z,22.17
2018-12-17T17:50:10.286Z,19.73
2018-12-17T17:52:37.734Z,20.75
2018-12-17T17:55:05.408Z,14.33
2018-12-17T17:57:32.981Z,14.13
2018-12-17T18:00:00.398Z,16.60
2018-12-17T18:02:27.878Z,18.45
2018-12-17T18:04:55.392Z,11.83
2018-12-17T18:07:22.859Z,13.35
2018-12-17T18:09:50.333Z,13.53
2018-12-17T18:12:17.799Z,19.87
2018-12-17T18:14:45.374Z,18.98
2018-12-17T18:17:12.842Z,16.60
2018-12-17T18:19:40.254Z,12.98
2018-12-17T18:22:07.786Z,9.50
2018-12-17T18:24:35.198Z,8.83
2018-12-17T18:27:02.727Z,7.65
2018-12-17T18:29:30.253Z,11.50
2018-12-17T18:31:57.674Z,12.98
2018-12-17T18:34:25.082Z,9.13
2018-12-17T18:36:52.497Z,8.33
2018-12-17T18:39:20.337Z,17.15
2018-12-17T18:41:47.769Z,8.38
2018-12-17T18:44:15.179Z,10.48
2018-12-17T18:46:42.598Z,8.03
2018-12-17T18:49:10.009Z,7.90
2018-12-17T18:51:37.458Z,9.08
2018-12-17T18:54:04.898Z,13.80
2018-12-17T18:56:32.378Z,8.98
2018-12-17T18:58:59.874Z,10.08
2018-12-17T19:01:27.346Z,13.32
2018-12-17T19:03:54.814Z,17.77
2018-12-17T19:06:22.341Z,7.70
2018-12-17T19:08:49.823Z,12.37
2018-12-17T19:11:17.297Z,10.88
2018-12-17T19:13:44.789Z,18.45
2018-12-17T19:16:12.217Z,12.93
2018-12-17T19:18:39.705Z,11.55
2018-12-17T19:21:07.275Z,11.63
2018-12-17T19:23:34.746Z,9.78
2018-12-17T19:26:02.214Z,9.00
2018-12-17T19:28:29.642Z,10.90
2018-12-17T19:30:57.155Z,14.50
2018-12-17T19:33:24.585Z,9.83
2018-12-17T19:35:51.981Z,6.28
2018-12-17T19:38:19.402Z,12.00
2018-12-17T19:40:46.938Z,16.27
2018-12-17T19:43:14.510Z,12.50
2018-12-17T19:45:41.906Z,7.37
2018-12-17T19:48:09.447Z,11.68
2018-12-17T19:50:36.915Z,8.43
2018-12-17T19:53:04.425Z,8.20
2018-12-17T19:55:31.862Z,10.03
2018-12-17T19:57:59.277Z,8.23
2018-12-17T20:00:26.690Z,5.53
2018-12-17T20:02:54.497Z,10.65
2018-12-17T20:05:21.999Z,10.28
2018-12-17T20:07:49.402Z,8.15
2018-12-17T20:10:20.930Z,16.27
2018-12-17T20:12:48.405Z,11.05
2018-12-17T20:15:15.813Z,13.72
2018-12-17T20:17:43.294Z,17.87
2018-12-17T20:20:10.789Z,11.40
2018-12-17T20:22:38.225Z,10.53
2018-12-17T20:25:06.005Z,21.57
2018-12-17T20:27:33.481Z,10.48
2018-12-17T20:30:00.966Z,14.80
2018-12-17T20:32:28.490Z,17.27
2018-12-17T20:34:55.886Z,14.28
2018-12-17T20:37:23.354Z,11.12
2018-12-17T20:39:50.938Z,12.47
2018-12-17T20:42:18.420Z,13.28
2018-12-17T20:44:45.914Z,14.10
2018-12-17T20:47:13.395Z,17.87
2018-12-17T20:49:40.898Z,9.50
2018-12-17T20:52:08.311Z,11.33
2018-12-17T20:54:35.813Z,12.03
2018-12-17T20:57:03.333Z,12.37
2018-12-17T20:59:30.814Z,10.60
2018-12-17T21:01:58.261Z,12.98
2018-12-17T21:04:25.674Z,9.23
2018-12-17T21:06:53.146Z,11.28
2018-12-17T21:09:20.634Z,10.03
2018-12-17T21:11:48.137Z,9.25
2018-12-17T21:14:15.557Z,10.20
2018-12-17T21:16:43.026Z,7.62
2018-12-17T21:19:10.510Z,15.58
2018-12-17T21:21:37.912Z,8.23
2018-12-17T21:24:05.410Z,10.82
2018-12-17T21:26:32.906Z,9.58
2018-12-17T21:29:00.642Z,7.65
2018-12-17T21:31:28.221Z,12.37
2018-12-17T21:33:55.701Z,10.95
2018-12-17T21:36:23.141Z,16.10
2018-12-17T21:38:51.041Z,12.75
2018-12-17T21:41:18.611Z,10.03
2018-12-17T21:43:46.187Z,11.25
2018-12-17T21:46:13.658Z,10.60
2018-12-17T21:48:41.134Z,8.78
2018-12-17T21:51:08.634Z,9.28
2018-12-17T21:53:36.063Z,13.35
2018-12-17T21:56:03.569Z,13.50
2018-12-17T21:58:31.034Z,9.03
2018-12-17T22:00:58.578Z,12.00
2018-12-17T22:03:25.990Z,10.68
2018-12-17T22:05:53.528Z,13.70
2018-12-17T22:08:21.091Z,15.30
2018-12-17T22:10:48.501Z,13.18
2018-12-17T22:13:16.005Z,12.63
2018-12-17T22:15:43.425Z,9.93
2018-12-17T22:18:10.870Z,11.33
2018-12-17T22:20:38.290Z,15.85
2018-12-17T22:23:05.817Z,16.95
2018-12-17T22:25:33.386Z,16.27
2018-12-17T22:28:00.954Z,14.78
2018-12-17T22:30:28.593Z,11.38
2018-12-17T22:32:56.081Z,7.78
2018-12-17T22:35:23.575Z,9.05
2018-12-17T22:37:51.145Z,8.90
2018-12-17T22:40:18.554Z,11.90
2018-12-17T22:42:46.082Z,16.80
2018-12-17T22:45:13.494Z,14.58
2018-12-17T22:47:40.913Z,11.75
2018-12-17T22:50:08.348Z,11.53
2018-12-17T22:52:35.863Z,12.40
2018-12-17T22:55:03.388Z,11.33
2018-12-17T22:57:30.877Z,14.68
2018-12-17T22:59:58.289Z,10.98
2018-12-17T23:02:25.778Z,9.30
2018-12-17T23:04:53.277Z,19.12
2018-12-17T23:07:20.698Z,11.95
2018-12-17T23:10:00.140Z,11.60
2018-12-17T23:12:39.569Z,11.95
2018-12-17T23:15:19.081Z,12.43
2018-12-17T23:17:46.074Z,9.65
2018-12-17T23:20:13.574Z,9.25
2018-12-17T23:22:42.917Z,11.48
2018-12-17T23:25:10.346Z,23.80
2018-12-17T23:27:37.785Z,11.57
2018-12-17T23:30:06.716Z,13.40
2018-12-17T23:32:34.407Z,13.72
2018-12-17T23:35:01.924Z,23.50
2018-12-17T23:37:29.454Z,20.12
2018-12-17T23:39:56.919Z,15.40
2018-12-17T23:42:24.426Z,18.10
2018-12-17T23:44:51.821Z,7.90
2018-12-17T23:47:19.265Z,14.83
2018-12-17T23:49:46.666Z,19.80
2018-12-17T23:52:14.099Z,11.28
2018-12-17T23:54:41.894Z,11.65
2018-12-17T23:57:09.394Z,16.00
2018-12-17T23:59:36.801Z,14.70
